Time;durP1;ratioP1;P1;durP2;ratioP2;P2;SDS_P1;SDS_P2;PMS_P1;PMS_P2;Temp;Humidity;BMP_temperature;BMP_pressure;BME280_temperature;BME280_humidity;BME280_pressure;Samples;Min_cycle;Max_cycle;Signal;HPM_P1;HPM_P2
2022/11/08 00:01:54;;;;;;;32.23;21.77;;;;;;;4.04;100.00;100102.20;1664191;85;21173;-69
2022/11/08 00:04:21;;;;;;;31.23;21.50;;;;;;;4.08;100.00;100103.41;1663954;85;21063;-69
2022/11/08 00:15:07;;;;;;;32.10;21.60;;;;;;;3.99;100.00;100100.70;1663122;85;22222;-70
2022/11/08 00:17:35;;;;;;;36.35;25.48;;;;;;;3.97;100.00;100102.27;1691105;83;21137;-69
2022/11/08 00:20:04;;;;;;;36.48;23.07;;;;;;;4.01;100.00;100102.64;1690936;83;21067;-67
2022/11/08 00:22:30;;;;;;;33.40;21.65;;;;;;;4.04;100.00;100092.77;1683294;83;21051;-69
2022/11/08 00:24:59;;;;;;;32.63;21.37;;;;;;;4.10;100.00;100087.87;1671192;85;21102;-69
2022/11/08 00:27:25;;;;;;;;;;;;;;;4.14;100.00;100088.25;1674985;84;21154;-68
2022/11/08 00:29:53;;;;;;;31.30;20.37;;;;;;;4.12;100.00;100089.80;1668535;85;20152;-68
2022/11/08 00:32:22;;;;;;;30.00;20.65;;;;;;;4.04;100.00;100090.08;1667928;85;21590;-69
2022/11/08 00:34:49;;;;;;;33.00;20.65;;;;;;;4.09;100.00;100080.00;1692349;84;21046;-69
2022/11/08 00:37:16;;;;;;;28.27;19.62;;;;;;;4.13;100.00;100062.34;1686389;83;21038;-70
2022/11/08 00:39:43;;;;;;;27.70;18.80;;;;;;;4.15;100.00;100044.91;1685863;85;21015;-69
2022/11/08 00:42:10;;;;;;;27.87;20.17;;;;;;;4.15;100.00;100048.94;1684819;84;21094;-69
2022/11/08 00:44:36;;;;;;;31.25;20.90;;;;;;;4.08;100.00;100049.53;1689471;84;21012;-69
2022/11/08 00:47:03;;;;;;;29.05;20.50;;;;;;;3.99;100.00;100050.87;1690403;83;21047;-68
2022/11/08 00:49:30;;;;;;;;;;;;;;;3.95;100.00;100054.53;1679667;84;20976;-69
2022/11/08 00:51:56;;;;;;;31.42;20.20;;;;;;;4.00;100.00;100062.76;1685389;83;20188;-68
2022/11/08 00:54:23;;;;;;;27.30;19.42;;;;;;;4.01;100.00;100064.93;1679779;83;21046;-70
2022/11/08 00:56:50;;;;;;;32.90;20.52;;;;;;;4.06;100.00;100064.28;1680623;83;21280;-69
2022/11/08 00:59:18;;;;;;;29.55;19.90;;;;;;;4.05;100.00;100068.01;1675011;83;21540;-69
2022/11/08 01:01:45;;;;;;;30.15;19.73;;;;;;;4.02;100.00;100066.59;1674073;83;21122;-68
2022/11/08 01:04:13;;;;;;;;;;;;;;;4.04;100.00;100054.27;1682487;83;21106;-68
2022/11/08 01:06:40;;;;;;;27.00;18.25;;;;;;;4.09;100.00;100059.27;1671458;83;20147;-69
2022/11/08 01:09:06;;;;;;;29.63;19.87;;;;;;;4.06;100.00;100052.98;1685181;84;21012;-68
2022/11/08 01:11:34;;;;;;;29.40;18.95;;;;;;;4.10;100.00;100045.28;1674322;83;21585;-68
2022/11/08 01:14:01;;;;;;;27.60;19.17;;;;;;;4.11;100.00;100044.25;1682859;84;20993;-69
2022/11/08 01:16:30;;;;;;;27.30;19.02;;;;;;;4.09;100.00;100047.15;1665678;84;22235;-68
2022/11/08 01:18:57;;;;;;;27.00;18.65;;;;;;;4.09;100.00;100051.19;1656470;85;21042;-69
2022/11/08 01:21:24;;;;;;;28.75;19.35;;;;;;;4.11;100.00;100045.04;1669296;85;21150;-69
2022/11/08 01:23:50;;;;;;;24.20;17.60;;;;;;;4.14;100.00;100048.66;1662799;84;21055;-69
2022/11/08 01:26:19;;;;;;;27.75;18.23;;;;;;;4.19;100.00;100053.36;1645733;86;21090;-68
2022/11/08 01:28:46;;;;;;;27.07;18.90;;;;;;;4.17;100.00;100046.87;1672218;84;21078;-69
2022/11/08 01:31:17;;;;;;;26.48;18.55;;;;;;;4.13;100.00;100040.27;1672415;85;21125;-68
2022/11/08 01:33:43;;;;;;;31.65;19.52;;;;;;;4.13;100.00;100036.23;1669956;84;21712;-68
2022/11/08 01:36:13;;;;;;;27.80;18.85;;;;;;;4.14;100.00;100036.55;1650457;84;21134;-68
2022/11/08 01:38:41;;;;;;;29.07;19.02;;;;;;;4.19;100.00;100036.68;1667210;84;21068;-68
2022/11/08 01:41:12;;;;;;;26.87;18.42;;;;;;;4.22;100.00;100034.05;1671156;84;21086;-69
2022/11/08 01:43:44;;;;;;;26.75;18.32;;;;;;;4.24;100.00;100035.50;1666099;84;21423;-68
2022/11/08 01:46:30;;;;;;;26.87;18.02;;;;;;;4.25;100.00;100045.20;1668841;84;21170;-68
2022/11/08 01:49:25;;;;;;;27.27;19.30;;;;;;;4.23;100.00;100036.53;1665431;84;21059;-68
2022/11/08 01:52:06;;;;;;;25.35;17.70;;;;;;;4.23;100.00;100050.02;1637676;86;21736;-68
2022/11/08 01:54:51;;;;;;;28.92;18.62;;;;;;;4.27;100.00;100061.17;1711978;83;22323;-68
2022/11/08 01:57:21;;;;;;;24.37;17.27;;;;;;;4.32;100.00;100064.03;1713735;83;21068;-68
2022/11/08 01:59:49;;;;;;;26.05;17.90;;;;;;;4.37;100.00;100060.13;1712022;82;21019;-68
2022/11/08 02:02:15;;;;;;;28.25;18.70;;;;;;;4.40;100.00;100066.41;1701114;83;21080;-68
2022/11/08 02:04:42;;;;;;;27.67;19.02;;;;;;;4.37;100.00;100060.95;1713514;83;21030;-68
2022/11/08 02:07:10;;;;;;;24.92;18.20;;;;;;;4.42;100.00;100063.81;1713450;83;21112;-68
2022/11/08 02:09:37;;;;;;;25.20;17.45;;;;;;;4.46;100.00;100047.47;1707687;83;21039;-69
2022/11/08 02:12:06;;;;;;;27.13;17.65;;;;;;;4.46;100.00;100050.16;1713196;83;21095;-68
2022/11/08 02:14:32;;;;;;;28.38;17.50;;;;;;;4.45;100.00;100047.19;1708965;83;21112;-68
2022/11/08 02:16:59;;;;;;;;;;;;;;;4.46;100.00;100056.11;1716232;82;21128;-69
2022/11/08 02:19:37;;;;;;;26.37;17.80;;;;;;;4.43;100.00;100046.57;1707384;82;20331;-68
2022/11/08 02:22:12;;;;;;;30.85;18.32;;;;;;;4.34;100.00;100061.41;1711701;83;21456;-68
2022/11/08 02:24:39;;;;;;;27.93;18.20;;;;;;;4.32;100.00;100048.66;1713442;83;21095;-68
2022/11/08 02:27:05;;;;;;;;;;;;;;;4.29;100.00;100047.77;1715899;82;21091;-68
2022/11/08 02:29:34;;;;;;;23.45;16.48;;;;;;;4.28;100.00;100044.79;1708878;82;20205;-68
2022/11/08 02:32:01;;;;;;;25.52;17.42;;;;;;;4.24;100.00;100040.89;1713148;82;21125;-68
2022/11/08 02:34:35;;;;;;;24.07;17.00;;;;;;;4.25;100.00;100041.72;1713384;82;21084;-68
2022/11/08 02:37:03;;;;;;;27.07;16.90;;;;;;;4.27;100.00;100040.44;1713834;82;21687;-71
2022/11/08 02:39:31;;;;;;;27.75;16.93;;;;;;;4.24;100.00;100040.89;1692277;83;21047;-68
2022/11/08 02:42:01;;;;;;;27.07;17.48;;;;;;;4.20;100.00;100044.24;1711880;82;21982;-68
2022/11/08 02:44:27;;;;;;;26.07;17.45;;;;;;;4.14;100.00;100032.50;1713823;83;21056;-68
2022/11/08 02:46:54;;;;;;;24.27;17.23;;;;;;;4.17;100.00;100038.78;1706891;83;21138;-68
2022/11/08 02:49:20;;;;;;;;;;;;;;;4.19;100.00;100031.29;1720625;82;21031;-68
2022/11/08 02:51:48;;;;;;;24.07;17.03;;;;;;;4.20;100.00;100031.59;1716324;82;20174;-68
2022/11/08 02:54:14;;;;;;;26.02;16.70;;;;;;;4.19;100.00;100038.02;1720279;82;21343;-69
2022/11/08 02:56:41;;;;;;;;;;;;;;;4.21;100.00;100041.86;1689429;84;21183;-68
2022/11/08 02:59:07;;;;;;;26.68;16.95;;;;;;;4.22;100.00;100047.52;1691268;83;20441;-68
2022/11/08 03:01:34;;;;;;;28.15;16.55;;;;;;;4.17;100.00;100050.91;1720594;82;21739;-68
2022/11/08 03:04:01;;;;;;;;;;;;;;;4.24;100.00;100059.75;1723216;82;21042;-68
2022/11/08 03:06:27;;;;;;;23.25;15.40;;;;;;;4.34;100.00;100051.14;1720710;83;20136;-68
2022/11/08 03:08:55;;;;;;;26.40;15.85;;;;;;;4.34;100.00;100044.41;1713461;82;21034;-68
2022/11/08 03:11:22;;;;;;;23.75;16.30;;;;;;;4.42;100.00;100049.52;1717300;82;21109;-68
2022/11/08 03:13:48;;;;;;;;;;;;;;;4.43;100.00;100054.66;1717392;82;21121;-68
2022/11/08 03:16:17;;;;;;;24.80;16.75;;;;;;;4.44;100.00;100060.36;1720227;83;20176;-68
2022/11/08 03:18:43;;;;;;;24.37;16.52;;;;;;;4.35;100.00;100060.37;1720282;83;21601;-69
2022/11/08 03:21:10;;;;;;;22.22;15.45;;;;;;;4.37;100.00;100058.78;1715738;82;21688;-69
2022/11/08 03:23:38;;;;;;;23.32;15.68;;;;;;;4.40;100.00;100062.37;1720367;82;21437;-69
2022/11/08 03:26:05;;;;;;;26.52;15.63;;;;;;;4.45;100.00;100068.75;1720701;82;21102;-69
2022/11/08 03:28:31;;;;;;;22.10;16.02;;;;;;;4.53;100.00;100060.07;1719162;82;21151;-69
2022/11/08 03:30:58;;;;;;;23.83;15.80;;;;;;;4.55;100.00;100056.61;1720348;82;21145;-68
2022/11/08 03:33:25;;;;;;;;;;;;;;;4.51;100.00;100055.72;1722609;82;21977;-69
2022/11/08 03:35:51;;;;;;;23.02;15.30;;;;;;;4.49;100.00;100056.48;1722487;82;20298;-68
2022/11/08 03:38:19;;;;;;;26.05;16.40;;;;;;;4.41;100.00;100050.55;1717233;83;21075;-69
2022/11/08 03:40:45;;;;;;;23.73;16.05;;;;;;;4.45;100.00;100058.49;1711856;82;21140;-69
2022/11/08 03:43:12;;;;;;;;;;;;;;;4.51;100.00;100060.28;1712186;82;21055;-68
2022/11/08 03:45:39;;;;;;;24.75;15.13;;;;;;;4.57;100.00;100060.72;1717071;82;20140;-69
2022/11/08 03:48:06;;;;;;;27.17;16.77;;;;;;;4.55;100.00;100053.40;1719331;83;21445;-68
2022/11/08 03:50:32;;;;;;;21.62;15.68;;;;;;;4.58;100.00;100052.11;1711807;82;21578;-68
2022/11/08 03:52:59;;;;;;;;;;;;;;;4.53;100.00;100040.13;1716250;83;21433;-69
2022/11/08 03:55:26;;;;;;;22.42;15.35;;;;;;;4.53;100.00;100030.41;1712749;82;20141;-69
2022/11/08 03:57:54;;;;;;;21.20;14.53;;;;;;;4.51;100.00;100031.97;1709882;83;21067;-69
2022/11/08 04:00:25;;;;;;;23.85;16.73;;;;;;;4.51;100.00;100046.28;1715486;83;21449;-69
2022/11/08 04:02:54;;;;;;;22.52;15.32;;;;;;;4.51;100.00;100044.94;1704743;82;21016;-69
2022/11/08 04:05:20;;;;;;;25.92;16.77;;;;;;;4.51;100.00;100040.89;1713099;82;21494;-69
2022/11/08 04:07:47;;;;;;;21.82;15.48;;;;;;;4.50;100.00;100038.41;1715358;82;21536;-69
2022/11/08 04:10:16;;;;;;;23.75;16.15;;;;;;;4.53;100.00;100043.38;1673185;84;21028;-70
2022/11/08 04:15:30;;;;;;;21.82;15.08;;;;;;;4.62;100.00;100058.19;1710914;82;21071;-69
2022/11/08 04:23:36;;;;;;;24.05;15.60;;;;;;;4.66;100.00;100046.42;1714016;83;21042;-69
2022/11/08 04:26:06;;;;;;;22.77;15.15;;;;;;;4.64;100.00;100047.98;1708879;82;21590;-68
2022/11/08 04:28:35;;;;;;;20.90;14.70;;;;;;;4.65;100.00;100053.69;1707822;82;21118;-69
2022/11/08 04:31:08;;;;;;;20.57;14.73;;;;;;;4.67;100.00;100050.27;1713483;83;21626;-69
2022/11/08 04:33:34;;;;;;;22.35;15.65;;;;;;;4.66;100.00;100049.12;1708722;82;21079;-68
2022/11/08 04:36:04;;;;;;;22.80;15.90;;;;;;;4.57;100.00;100049.14;1711506;82;21042;-70
2022/11/08 04:38:31;;;;;;;24.23;16.40;;;;;;;4.48;100.00;100044.56;1709751;83;21015;-69
2022/11/08 04:41:12;;;;;;;20.60;15.55;;;;;;;4.45;100.00;100039.10;1710465;82;21118;-70
2022/11/08 04:43:39;;;;;;;21.45;14.68;;;;;;;4.48;100.00;100034.61;1715126;83;21103;-69
2022/11/08 06:24:54;;;;;;;38.58;24.27;;;;;;;3.13;100.00;100085.66;1800719;78;22934;-73
2022/11/08 06:27:21;;;;;;;33.85;21.77;;;;;;;3.23;100.00;100101.33;1752344;81;21074;-73
2022/11/08 06:29:49;;;;;;;25.27;16.95;;;;;;;3.46;100.00;100103.80;1748699;82;21507;-73
2022/11/08 06:32:15;;;;;;;22.55;15.63;;;;;;;3.67;100.00;100102.61;1736939;82;21586;-74
2022/11/08 06:34:41;;;;;;;24.95;15.43;;;;;;;3.85;100.00;100103.20;1740075;82;21102;-73
2022/11/08 06:37:08;;;;;;;27.15;16.37;;;;;;;4.01;100.00;100107.52;1737545;81;21050;-73
2022/11/08 06:39:35;;;;;;;24.45;14.60;;;;;;;4.18;100.00;100109.13;1748638;82;21429;-74
2022/11/08 06:42:02;;;;;;;;;;;;;;;4.33;100.00;100107.44;1698466;83;21040;-74
2022/11/08 06:44:28;;;;;;;22.48;14.60;;;;;;;4.42;100.00;100112.86;1682764;85;20167;-73
2022/11/08 06:46:55;;;;;;;20.30;13.78;;;;;;;4.47;100.00;100107.08;1698506;84;22188;-74
2022/11/08 06:49:23;;;;;;;22.58;13.78;;;;;;;4.63;100.00;100100.81;1696687;84;21129;-74
2022/11/08 06:51:51;;;;;;;32.83;16.27;;;;;;;4.74;100.00;100099.55;1690580;84;21098;-73
2022/11/08 06:54:18;;;;;;;20.97;13.85;;;;;;;4.76;100.00;100102.00;1688670;85;21110;-73
2022/11/08 06:56:46;;;;;;;18.07;13.48;;;;;;;4.82;100.00;100109.19;1693092;84;21185;-72
2022/11/08 06:59:14;;;;;;;19.23;13.18;;;;;;;4.92;100.00;100105.46;1680763;84;21132;-72
2022/11/08 07:01:41;;;;;;;20.00;13.90;;;;;;;5.00;100.00;100098.39;1691952;84;22394;-72
2022/11/08 07:04:09;;;;;;;21.87;13.80;;;;;;;5.05;100.00;100101.23;1702563;84;21101;-72
2022/11/08 07:06:36;;;;;;;22.42;14.55;;;;;;;5.07;100.00;100097.78;1700386;84;21117;-71
2022/11/08 07:09:04;;;;;;;23.47;14.93;;;;;;;5.08;100.00;100098.08;1686941;84;21105;-71
2022/11/08 07:11:32;;;;;;;21.57;13.93;;;;;;;5.14;100.00;100099.86;1681432;85;21636;-71
2022/11/08 07:13:59;;;;;;;19.00;13.58;;;;;;;5.24;100.00;100097.99;1681228;85;21607;-69
2022/11/08 07:16:26;;;;;;;20.17;14.13;;;;;;;5.31;100.00;100100.91;1695645;84;21174;-71
2022/11/08 07:18:54;;;;;;;27.22;15.20;;;;;;;5.35;100.00;100106.67;1688702;83;21085;-73
2022/11/08 07:21:21;;;;;;;21.07;13.90;;;;;;;5.37;100.00;100102.68;1682663;84;21092;-73
2022/11/08 07:23:48;;;;;;;18.85;13.35;;;;;;;5.40;100.00;100105.44;1691903;83;21085;-72
2022/11/08 07:26:16;;;;;;;21.40;13.18;;;;;;;5.45;100.00;100102.37;1684806;84;21655;-71
2022/11/08 07:28:42;;;;;;;21.95;14.15;;;;;;;5.47;100.00;100100.25;1694624;83;21084;-72
2022/11/08 07:31:09;;;;;;;;;;;;;;;5.45;100.00;100101.02;1696308;84;21113;-73
2022/11/08 07:33:36;;;;;;;22.95;13.88;;;;;;;5.49;100.00;100100.83;1663875;84;20162;-73
2022/11/08 07:36:04;;;;;;;21.42;14.10;;;;;;;5.49;100.00;100110.83;1718081;83;21604;-73
2022/11/08 07:38:30;;;;;;;22.62;13.78;;;;;;;5.53;100.00;100106.07;1712778;83;21556;-72
2022/11/08 07:40:58;;;;;;;25.55;15.43;;;;;;;5.55;100.00;100105.86;1693960;84;21029;-72
2022/11/08 07:43:25;;;;;;;22.22;13.90;;;;;;;5.53;100.00;100103.37;1720970;83;21137;-72
2022/11/08 07:45:56;;;;;;;20.50;13.88;;;;;;;5.58;100.00;100097.81;1697954;83;21100;-72
2022/11/08 07:48:23;;;;;;;21.27;13.30;;;;;;;5.66;100.00;100096.14;1681831;83;21734;-72
2022/11/08 07:50:50;;;;;;;25.68;14.40;;;;;;;5.73;100.00;100094.98;1689558;84;21062;-71
2022/11/08 07:53:17;;;;;;;25.62;15.40;;;;;;;5.75;100.00;100097.44;1702451;83;21113;-73
2022/11/08 07:55:44;;;;;;;28.12;14.45;;;;;;;5.72;100.00;100098.73;1685928;84;21053;-73
2022/11/08 07:58:12;;;;;;;24.07;14.78;;;;;;;5.77;100.00;100098.05;1676548;85;21117;-73
2022/11/08 08:00:40;;;;;;;25.72;15.68;;;;;;;5.85;100.00;100105.80;1711490;83;21021;-72
2022/11/08 08:03:08;;;;;;;25.57;15.68;;;;;;;5.90;100.00;100102.74;1703263;83;21057;-72
2022/11/08 08:05:39;;;;;;;25.85;14.70;;;;;;;5.91;100.00;100104.92;1703696;83;21093;-73
2022/11/08 08:08:06;;;;;;;29.40;15.08;;;;;;;5.90;100.00;100096.52;1712665;83;21057;-73
2022/11/08 08:10:33;;;;;;;25.05;14.80;;;;;;;5.95;100.00;100100.70;1708980;83;21093;-73
2022/11/08 08:13:00;;;;;;;27.65;15.15;;;;;;;6.04;100.00;100092.53;1703010;83;21163;-73
2022/11/08 08:15:26;;;;;;;27.98;16.10;;;;;;;6.07;100.00;100089.36;1669776;84;21325;-73
2022/11/08 08:17:54;;;;;;;28.20;16.20;;;;;;;6.11;100.00;100100.53;1678559;84;21189;-72
2022/11/08 08:20:21;;;;;;;29.52;15.48;;;;;;;6.19;100.00;100096.96;1672081;84;21093;-72
2022/11/08 08:22:49;;;;;;;31.25;15.75;;;;;;;6.31;100.00;100101.83;1692938;84;21079;-72
2022/11/08 08:25:16;;;;;;;24.47;15.43;;;;;;;6.37;100.00;100096.85;1711889;83;21065;-72
2022/11/08 08:27:54;;;;;;;32.60;16.37;;;;;;;6.35;100.00;100098.95;1701268;83;21129;-74
2022/11/08 08:30:22;;;;;;;27.22;15.53;;;;;;;6.37;100.00;100100.08;1686270;84;21046;-71
2022/11/08 08:32:48;;;;;;;30.35;16.15;;;;;;;6.46;100.00;100098.13;1687057;84;21650;-72
2022/11/08 08:35:15;;;;;;;33.65;16.48;;;;;;;6.59;100.00;100103.02;1694171;84;21045;-72
2022/11/08 08:37:42;;;;;;;31.73;17.02;;;;;;;6.67;100.00;100098.56;1684007;85;21534;-72
2022/11/08 08:40:09;;;;;;;32.53;16.73;;;;;;;6.71;100.00;100097.04;1689908;84;21632;-72
2022/11/08 08:42:36;;;;;;;35.00;16.85;;;;;;;6.72;100.00;100097.34;1692189;84;21150;-73
2022/11/08 08:45:04;;;;;;;29.87;15.28;;;;;;;6.79;100.00;100093.97;1681933;84;21107;-74
2022/11/08 08:47:31;;;;;;;28.15;15.70;;;;;;;6.90;100.00;100097.19;1694597;83;21082;-73
2022/11/08 08:49:57;;;;;;;33.18;17.12;;;;;;;6.95;100.00;100099.45;1677560;83;21065;-73
2022/11/08 08:52:24;;;;;;;31.20;17.20;;;;;;;6.95;100.00;100092.69;1664721;86;21184;-73
2022/11/08 08:54:51;;;;;;;33.67;15.70;;;;;;;7.01;100.00;100089.58;1664569;86;21128;-73
2022/11/08 08:57:17;;;;;;;35.03;17.17;;;;;;;7.11;100.00;100094.36;1667420;85;21024;-73
2022/11/08 08:59:44;;;;;;;34.70;19.00;;;;;;;7.10;100.00;100090.83;1684920;83;21077;-73
2022/11/08 09:02:12;;;;;;;35.13;17.82;;;;;;;7.05;100.00;100090.72;1718259;83;21462;-74
2022/11/08 09:04:39;;;;;;;32.50;17.52;;;;;;;7.04;100.00;100090.44;1703835;84;21094;-74
2022/11/08 09:07:06;;;;;;;35.50;17.77;;;;;;;7.07;100.00;100092.66;1694240;83;21089;-74
2022/11/08 09:09:35;;;;;;;32.93;18.10;;;;;;;7.18;100.00;100094.52;1677666;85;21104;-75
2022/11/08 09:12:02;;;;;;;40.58;18.37;;;;;;;7.24;100.00;100093.55;1683524;84;21142;-74
2022/11/08 09:14:30;;;;;;;39.55;20.52;;;;;;;7.25;100.00;100091.66;1678641;84;21096;-74
2022/11/08 09:16:57;;;;;;;;;;;;;;;7.32;100.00;100089.11;1700488;83;21077;-74
2022/11/08 09:19:23;;;;;;;34.18;17.77;;;;;;;7.46;100.00;100095.88;1690622;83;20183;-74
2022/11/08 09:21:51;;;;;;;42.98;24.47;;;;;;;7.54;100.00;100096.55;1701651;83;21013;-74
2022/11/08 09:24:17;;;;;;;37.25;19.35;;;;;;;7.60;100.00;100089.62;1652847;86;21113;-74
2022/11/08 09:26:45;;;;;;;40.00;19.32;;;;;;;7.67;100.00;100093.00;1709634;82;21063;-74
2022/11/08 09:29:12;;;;;;;40.12;21.57;;;;;;;7.74;100.00;100090.95;1729935;82;21111;-74
2022/11/08 09:31:40;;;;;;;35.45;21.30;;;;;;;7.85;100.00;100095.48;1714618;82;21082;-74
2022/11/08 09:34:06;;;;;;;35.45;18.32;;;;;;;7.95;100.00;100097.53;1707856;82;21039;-74
2022/11/08 09:36:33;;;;;;;38.15;20.95;;;;;;;8.00;100.00;100094.92;1717511;82;21135;-75
2022/11/08 09:39:00;;;;;;;34.60;18.82;;;;;;;8.00;100.00;100094.39;1712218;82;21565;-75
2022/11/08 09:41:38;;;;;;;;;;;;;;;8.00;100.00;100093.03;1712667;82;21072;-74
2022/11/08 09:44:26;;;;;;;32.53;18.12;;;;;;;8.03;100.00;100089.53;1710411;82;20404;-75
2022/11/08 09:46:55;;;;;;;;;;;;;;;8.01;100.00;100090.59;1710388;84;21110;-74
2022/11/08 09:49:30;;;;;;;35.20;18.57;;;;;;;7.96;100.00;100086.46;1711702;82;20465;-74
2022/11/08 09:51:57;;;;;;;33.65;18.55;;;;;;;7.81;100.00;100078.59;1711907;82;21091;-75
2022/11/08 09:54:29;;;;;;;31.73;18.80;;;;;;;7.81;100.00;100076.70;1728555;82;21090;-74
2022/11/08 09:56:55;;;;;;;34.95;18.32;;;;;;;7.85;100.00;100073.80;1736913;82;21064;-75
2022/11/08 14:23:30;;;;;;;56.60;36.25;;;;;;;7.90;100.00;100136.22;1786937;79;22966;-70
2022/11/08 14:26:01;;;;;;;53.87;34.10;;;;;;;7.94;100.00;100153.64;1775993;79;21059;-71
2022/11/08 14:28:55;;;;;;;64.53;41.53;;;;;;;8.16;100.00;100151.03;1781371;80;20976;-71
2022/11/08 14:31:33;;;;;;;40.70;27.58;;;;;;;8.29;100.00;100149.37;1704708;80;20991;-72
2022/11/08 14:40:55;;;;;;;42.60;27.13;;;;;;;8.76;100.00;100154.44;1737525;81;20986;-69
2022/11/08 14:43:21;;;;;;;117.77;72.45;;;;;;;8.85;100.00;100156.49;1743318;81;22062;-70
2022/11/08 14:45:48;;;;;;;75.25;48.70;;;;;;;8.93;100.00;100153.33;1741462;81;21033;-69
2022/11/08 14:48:19;;;;;;;;;;;;;;;8.99;100.00;100152.34;1731404;83;21053;-70
2022/11/08 14:50:45;;;;;;;52.05;32.70;;;;;;;9.03;100.00;100152.66;1747883;81;20431;-69
2022/11/08 14:53:21;;;;;;;46.65;31.70;;;;;;;9.00;100.00;100151.25;1748567;81;21001;-69
2022/11/08 14:56:13;;;;;;;36.63;26.12;;;;;;;9.07;100.00;100151.06;1739536;81;20990;-70
2022/11/08 14:58:40;;;;;;;38.85;27.93;;;;;;;9.19;100.00;100156.38;1728563;80;21051;-71
2022/11/08 15:01:06;;;;;;;34.75;27.22;;;;;;;9.25;100.00;100156.18;1699212;83;21011;-72
2022/11/08 15:03:33;;;;;;;;;;;;;;;9.30;100.00;100159.51;1673733;84;21572;-70
2022/11/08 15:06:02;;;;;;;33.50;26.10;;;;;;;9.36;100.00;100149.80;1668828;85;20757;-69
2022/11/08 15:08:33;;;;;;;37.95;29.12;;;;;;;9.39;100.00;100153.90;1684542;84;21141;-68
2022/11/08 15:11:09;;;;;;;35.83;27.45;;;;;;;9.40;100.00;100157.73;1667489;85;21092;-69
2022/11/08 15:13:46;;;;;;;37.40;27.60;;;;;;;9.48;100.00;100151.86;1704292;82;21114;-69
2022/11/08 15:16:12;;;;;;;34.75;27.55;;;;;;;9.61;100.00;100149.80;1679890;84;21065;-69
2022/11/08 15:18:41;;;;;;;35.70;27.52;;;;;;;9.70;100.00;100149.11;1748627;80;21161;-70
2022/11/08 15:21:22;;;;;;;36.25;27.48;;;;;;;9.75;100.00;100151.87;1729636;81;21026;-71
2022/11/08 15:23:52;;;;;;;34.55;25.95;;;;;;;9.76;100.00;100150.80;1723799;81;21911;-71
2022/11/08 15:26:27;;;;;;;35.40;27.37;;;;;;;9.79;100.00;100147.56;1724622;82;21101;-71
2022/11/08 15:29:07;;;;;;;38.42;27.48;;;;;;;9.86;100.00;100148.71;1721564;82;21058;-70
2022/11/08 15:31:51;;;;;;;37.93;28.92;;;;;;;9.90;100.00;100153.39;1727906;83;21089;-71
2022/11/08 15:34:20;;;;;;;35.38;27.48;;;;;;;9.88;100.00;100154.16;1673167;83;21143;-69
2022/11/08 15:36:48;;;;;;;37.83;29.05;;;;;;;9.91;100.00;100149.59;1682307;84;21010;-69
2022/11/08 15:39:23;;;;;;;;;;;;;;;9.97;100.00;100154.53;1682025;83;21429;-70
2022/11/08 15:41:59;;;;;;;36.58;28.67;;;;;;;9.99;100.00;100159.16;1690215;84;20702;-70
2022/11/08 15:44:25;;;;;;;45.60;34.05;;;;;;;9.87;100.00;100159.34;1668012;84;21138;-70
2022/11/08 15:46:53;;;;;;;46.18;33.23;;;;;;;9.76;100.00;100162.20;1676604;85;21058;-70
2022/11/08 15:49:22;;;;;;;47.45;33.50;;;;;;;9.64;100.00;100154.19;1679263;85;21030;-70
2022/11/08 15:51:50;;;;;;;54.30;36.30;;;;;;;9.63;100.00;100163.98;1699089;84;21014;-70
2022/11/08 15:54:20;;;;;;;49.90;34.60;;;;;;;9.55;100.00;100162.53;1689679;84;21593;-71
2022/11/08 15:56:47;;;;;;;52.73;37.33;;;;;;;9.50;100.00;100168.72;1679882;85;21002;-68
2022/11/08 15:59:16;;;;;;;56.25;37.98;;;;;;;9.44;100.00;100170.28;1678500;84;21102;-70
2022/11/08 16:01:53;;;;;;;46.40;32.85;;;;;;;9.36;100.00;100168.82;1651593;85;21063;-70
2022/11/08 16:04:22;;;;;;;40.98;30.15;;;;;;;9.33;100.00;100167.15;1674293;84;21128;-70
2022/11/08 16:06:49;;;;;;;44.13;32.50;;;;;;;9.33;100.00;100170.69;1679484;84;21412;-70
2022/11/08 16:09:17;;;;;;;48.87;35.73;;;;;;;9.29;100.00;100168.19;1715657;82;21576;-69
2022/11/08 16:11:44;;;;;;;46.30;35.13;;;;;;;9.20;100.00;100169.72;1714531;83;21774;-69
2022/11/08 16:14:17;;;;;;;40.28;30.30;;;;;;;9.11;100.00;100171.74;1697765;83;21113;-73
2022/11/08 16:16:44;;;;;;;105.50;60.08;;;;;;;9.05;100.00;100174.11;1679090;85;21102;-73
2022/11/08 16:19:18;;;;;;;;;;;;;;;9.02;100.00;100181.41;1681582;84;21180;-70
2022/11/08 16:21:45;;;;;;;118.15;64.53;;;;;;;8.94;100.00;100183.48;1668926;85;20136;-70
2022/11/08 16:24:11;;;;;;;;;;;;;;;8.81;100.00;100188.45;1685680;84;21085;-70
2022/11/08 16:26:41;;;;;;;;;;;;;;;8.68;100.00;100184.73;1689612;84;20170;-68
2022/11/08 16:29:22;;;;;;;67.40;45.23;;;;;;;8.49;100.00;100179.56;1685994;84;20141;-71
2022/11/08 16:31:50;;;;;;;81.75;55.67;;;;;;;8.33;100.00;100181.72;1700086;84;21036;-70
2022/11/08 16:34:17;;;;;;;65.60;46.85;;;;;;;8.27;100.00;100186.75;1700943;83;21169;-70
2022/11/08 16:36:45;;;;;;;52.88;39.65;;;;;;;8.25;100.00;100186.72;1721409;83;20971;-71
2022/11/08 16:39:21;;;;;;;62.67;45.40;;;;;;;8.20;100.00;100189.33;1708750;83;21561;-72
2022/11/08 16:41:48;;;;;;;61.00;44.65;;;;;;;8.14;100.00;100194.39;1718733;82;21020;-69
2022/11/08 16:44:15;;;;;;;58.48;43.40;;;;;;;8.05;100.00;100193.95;1704024;83;21109;-74
2022/11/08 16:46:43;;;;;;;50.95;39.70;;;;;;;7.95;100.00;100200.02;1699290;83;21059;-72
2022/11/08 16:49:22;;;;;;;52.20;39.08;;;;;;;7.89;100.00;100192.05;1676988;83;21121;-71
2022/11/08 16:51:48;;;;;;;47.67;36.03;;;;;;;7.86;100.00;100192.53;1704862;83;20981;-74
2022/11/08 16:54:19;;;;;;;60.67;42.58;;;;;;;7.82;100.00;100195.44;1724088;82;21030;-72
2022/11/08 16:56:47;;;;;;;53.78;40.17;;;;;;;7.79;100.00;100191.33;1698476;83;21030;-72
2022/11/08 16:59:14;;;;;;;51.68;40.40;;;;;;;7.74;100.00;100192.58;1678468;84;21104;-73
2022/11/08 17:01:41;;;;;;;49.95;36.73;;;;;;;7.69;100.00;100197.06;1681828;84;21672;-73
2022/11/08 17:04:07;;;;;;;;;;;;;;;7.64;100.00;100188.84;1679099;84;21105;-73
2022/11/08 17:06:34;;;;;;;66.17;41.58;;;;;;;7.62;100.00;100190.44;1700897;83;20632;-71
2022/11/08 17:09:01;;;;;;;144.65;73.52;;;;;;;7.54;100.00;100190.02;1698123;83;21149;-71
2022/11/08 17:11:27;;;;;;;243.95;140.45;;;;;;;7.53;100.00;100195.12;1698215;83;21037;-71
2022/11/08 17:13:54;;;;;;;;;;;;;;;7.49;100.00;100191.55;1683674;84;21148;-72
2022/11/08 17:16:20;;;;;;;173.95;126.15;;;;;;;7.42;100.00;100192.22;1677787;84;20169;-71
2022/11/08 17:18:47;;;;;;;128.40;102.32;;;;;;;7.27;100.00;100200.02;1680277;82;21457;-72
2022/11/08 17:21:14;;;;;;;84.37;72.30;;;;;;;7.24;100.00;100203.73;1712299;82;21484;-72
2022/11/08 17:23:42;;;;;;;66.85;58.92;;;;;;;7.27;100.00;100200.02;1703443;83;21176;-72
2022/11/08 17:26:08;;;;;;;;;;;;;;;7.29;100.00;100201.98;1711342;83;21044;-72
2022/11/08 17:28:35;;;;;;;41.48;36.45;;;;;;;7.30;100.00;100195.48;1703487;83;20156;-72
2022/11/08 17:31:17;;;;;;;36.23;31.27;;;;;;;7.25;100.00;100201.33;1711134;82;21094;-72
2022/11/08 17:33:44;;;;;;;40.83;29.77;;;;;;;7.22;100.00;100204.52;1716164;82;21058;-71
2022/11/08 17:36:12;;;;;;;50.10;39.23;;;;;;;7.19;100.00;100203.65;1716328;83;20971;-72
2022/11/08 17:38:40;;;;;;;47.23;36.63;;;;;;;7.21;100.00;100204.22;1722571;81;21128;-71
2022/11/08 17:41:10;;;;;;;57.08;38.78;;;;;;;7.29;100.00;100206.04;1703952;83;21522;-71
2022/11/08 17:43:37;;;;;;;56.98;40.98;;;;;;;7.38;100.00;100206.47;1729831;81;21505;-72
2022/11/08 17:46:05;;;;;;;54.00;42.90;;;;;;;7.40;100.00;100206.52;1720729;82;20987;-71
2022/11/08 17:48:32;;;;;;;59.40;47.67;;;;;;;7.37;100.00;100202.94;1739358;80;21014;-72
2022/11/08 17:51:00;;;;;;;58.38;46.15;;;;;;;7.40;100.00;100205.16;1724764;82;21375;-70